sensor_id;sensor_type;location;lat;lon;timestamp;temperature;humidity
19665;DHT22;9980;51.020;7.772;2022-11-03T00:02:11;8.10;99.20
19665;DHT22;9980;51.020;7.772;2022-11-03T00:04:50;8.10;99.60
19665;DHT22;9980;51.020;7.772;2022-11-03T00:07:56;8.10;99.40
19665;DHT22;9980;51.020;7.772;2022-11-03T00:10:35;8.10;99.60
19665;DHT22;9980;51.020;7.772;2022-11-03T00:13:21;8.10;99.50
19665;DHT22;9980;51.020;7.772;2022-11-03T00:16:00;8.10;99.90
19665;DHT22;9980;51.020;7.772;2022-11-03T00:18:47;8.10;99.90
19665;DHT22;9980;51.020;7.772;2022-11-03T00:21:28;8.10;99.90
19665;DHT22;9980;51.020;7.772;2022-11-03T00:24:21;8.20;99.90
19665;DHT22;9980;51.020;7.772;2022-11-03T00:26:54;8.20;99.90
19665;DHT22;9980;51.020;7.772;2022-11-03T00:29:47;8.20;99.90
19665;DHT22;9980;51.020;7.772;2022-11-03T00:32:20;8.20;99.90
19665;DHT22;9980;51.020;7.772;2022-11-03T00:35:13;8.20;99.90
19665;DHT22;9980;51.020;7.772;2022-11-03T00:37:46;8.20;99.90
19665;DHT22;9980;51.020;7.772;2022-11-03T00:40:39;8.20;99.90
19665;DHT22;9980;51.020;7.772;2022-11-03T00:43:12;8.20;99.90
19665;DHT22;9980;51.020;7.772;2022-11-03T00:46:06;8.30;99.90
19665;DHT22;9980;51.020;7.772;2022-11-03T00:48:40;8.20;99.90
19665;DHT22;9980;51.020;7.772;2022-11-03T00:51:34;8.30;99.90
19665;DHT22;9980;51.020;7.772;2022-11-03T00:54:13;8.30;99.90
19665;DHT22;9980;51.020;7.772;2022-11-03T00:56:59;8.30;99.90
19665;DHT22;9980;51.020;7.772;2022-11-03T00:59:38;8.30;99.90
19665;DHT22;9980;51.020;7.772;2022-11-03T01:02:24;8.40;99.90
19665;DHT22;9980;51.020;7.772;2022-11-03T01:05:04;8.40;99.90
19665;DHT22;9980;51.020;7.772;2022-11-03T01:08:09;8.30;99.90
19665;DHT22;9980;51.020;7.772;2022-11-03T01:10:48;8.40;99.90
19665;DHT22;9980;51.020;7.772;2022-11-03T01:13:53;8.40;99.90
19665;DHT22;9980;51.020;7.772;2022-11-03T01:16:33;8.40;99.90
19665;DHT22;9980;51.020;7.772;2022-11-03T01:19:26;8.40;99.90
19665;DHT22;9980;51.020;7.772;2022-11-03T01:22:06;8.40;99.90
19665;DHT22;9980;51.020;7.772;2022-11-03T01:24:59;8.40;99.90
19665;DHT22;9980;51.020;7.772;2022-11-03T01:27:38;8.40;99.90
19665;DHT22;9980;51.020;7.772;2022-11-03T01:30:32;8.40;99.90
19665;DHT22;9980;51.020;7.772;2022-11-03T01:33:11;8.50;99.90
19665;DHT22;9980;51.020;7.772;2022-11-03T01:36:04;8.50;99.90
19665;DHT22;9980;51.020;7.772;2022-11-03T01:38:37;8.60;99.90
19665;DHT22;9980;51.020;7.772;2022-11-03T01:41:30;8.60;99.90
19665;DHT22;9980;51.020;7.772;2022-11-03T01:47:00;8.70;99.90
19665;DHT22;9980;51.020;7.772;2022-11-03T01:50:07;8.70;99.90
19665;DHT22;9980;51.020;7.772;2022-11-03T01:52:57;8.80;99.90
19665;DHT22;9980;51.020;7.772;2022-11-03T01:55:37;8.90;99.90
19665;DHT22;9980;51.020;7.772;2022-11-03T01:58:34;8.90;99.90
19665;DHT22;9980;51.020;7.772;2022-11-03T02:01:17;9.00;99.90
19665;DHT22;9980;51.020;7.772;2022-11-03T02:04:10;9.00;99.90
19665;DHT22;9980;51.020;7.772;2022-11-03T02:10:24;9.10;99.90
19665;DHT22;9980;51.020;7.772;2022-11-03T02:12:56;9.20;99.90
19665;DHT22;9980;51.020;7.772;2022-11-03T02:15:54;9.20;99.90
19665;DHT22;9980;51.020;7.772;2022-11-03T02:18:32;9.20;99.90
19665;DHT22;9980;51.020;7.772;2022-11-03T02:21:39;9.30;99.90
19665;DHT22;9980;51.020;7.772;2022-11-03T02:24:49;9.30;99.90
19665;DHT22;9980;51.020;7.772;2022-11-03T02:27:57;9.30;99.90
19665;DHT22;9980;51.020;7.772;2022-11-03T02:31:02;9.40;99.90
19665;DHT22;9980;51.020;7.772;2022-11-03T02:34:15;9.50;99.90
19665;DHT22;9980;51.020;7.772;2022-11-03T02:37:12;9.60;99.90
19665;DHT22;9980;51.020;7.772;2022-11-03T02:40:13;9.70;99.90
19665;DHT22;9980;51.020;7.772;2022-11-03T02:42:51;9.70;99.90
19665;DHT22;9980;51.020;7.772;2022-11-03T02:45:46;9.80;99.90
19665;DHT22;9980;51.020;7.772;2022-11-03T02:48:21;9.90;99.90
19665;DHT22;9980;51.020;7.772;2022-11-03T02:51:14;9.90;99.90
19665;DHT22;9980;51.020;7.772;2022-11-03T02:54:01;10.00;99.90
19665;DHT22;9980;51.020;7.772;2022-11-03T02:57:17;10.10;99.90
19665;DHT22;9980;51.020;7.772;2022-11-03T03:00:03;10.20;99.90
19665;DHT22;9980;51.020;7.772;2022-11-03T03:06:01;10.30;99.90
19665;DHT22;9980;51.020;7.772;2022-11-03T03:08:55;10.40;99.90
19665;DHT22;9980;51.020;7.772;2022-11-03T03:11:41;10.40;99.90
19665;DHT22;9980;51.020;7.772;2022-11-03T03:14:37;10.40;99.90
19665;DHT22;9980;51.020;7.772;2022-11-03T03:17:23;10.40;99.90
19665;DHT22;9980;51.020;7.772;2022-11-03T03:20:36;10.40;99.90
19665;DHT22;9980;51.020;7.772;2022-11-03T03:23:23;10.40;99.90
19665;DHT22;9980;51.020;7.772;2022-11-03T03:26:13;10.40;99.90
19665;DHT22;9980;51.020;7.772;2022-11-03T03:29:40;10.40;99.90
19665;DHT22;9980;51.020;7.772;2022-11-03T03:32:46;10.40;99.90
19665;DHT22;9980;51.020;7.772;2022-11-03T03:35:29;10.40;99.90
19665;DHT22;9980;51.020;7.772;2022-11-03T03:38:31;10.40;99.90
19665;DHT22;9980;51.020;7.772;2022-11-03T03:41:15;10.40;99.90
19665;DHT22;9980;51.020;7.772;2022-11-03T03:44:07;10.40;99.90
19665;DHT22;9980;51.020;7.772;2022-11-03T03:46:53;10.30;99.90
19665;DHT22;9980;51.020;7.772;2022-11-03T03:49:50;10.30;99.90
19665;DHT22;9980;51.020;7.772;2022-11-03T03:52:24;10.30;99.90
19665;DHT22;9980;51.020;7.772;2022-11-03T03:55:19;10.30;99.90
19665;DHT22;9980;51.020;7.772;2022-11-03T03:57:57;10.30;99.90
19665;DHT22;9980;51.020;7.772;2022-11-03T04:00:50;10.20;99.90
19665;DHT22;9980;51.020;7.772;2022-11-03T04:03:24;10.20;99.90
19665;DHT22;9980;51.020;7.772;2022-11-03T04:06:17;10.20;99.90
19665;DHT22;9980;51.020;7.772;2022-11-03T04:08:50;10.10;99.90
19665;DHT22;9980;51.020;7.772;2022-11-03T04:11:43;10.10;99.90
19665;DHT22;9980;51.020;7.772;2022-11-03T04:14:41;10.10;99.90
19665;DHT22;9980;51.020;7.772;2022-11-03T04:17:50;10.00;99.90
19665;DHT22;9980;51.020;7.772;2022-11-03T04:20:48;10.00;99.90
19665;DHT22;9980;51.020;7.772;2022-11-03T04:23:53;10.00;99.90
19665;DHT22;9980;51.020;7.772;2022-11-03T04:26:32;10.00;99.90
19665;DHT22;9980;51.020;7.772;2022-11-03T04:29:25;10.00;99.90
19665;DHT22;9980;51.020;7.772;2022-11-03T04:31:58;10.10;99.90
19665;DHT22;9980;51.020;7.772;2022-11-03T04:34:51;10.10;99.90
19665;DHT22;9980;51.020;7.772;2022-11-03T04:37:27;10.10;99.90
19665;DHT22;9980;51.020;7.772;2022-11-03T04:40:19;10.10;99.90
19665;DHT22;9980;51.020;7.772;2022-11-03T04:43:11;10.10;99.90
19665;DHT22;9980;51.020;7.772;2022-11-03T04:45:51;10.20;99.90
19665;DHT22;9980;51.020;7.772;2022-11-03T04:48:37;10.20;99.90
19665;DHT22;9980;51.020;7.772;2022-11-03T04:51:18;10.20;99.90
19665;DHT22;9980;51.020;7.772;2022-11-03T04:54:22;10.20;99.90
19665;DHT22;9980;51.020;7.772;2022-11-03T04:56:55;10.10;99.90
19665;DHT22;9980;51.020;7.772;2022-11-03T04:59:49;10.10;99.90
19665;DHT22;9980;51.020;7.772;2022-11-03T05:02:24;10.10;99.90
19665;DHT22;9980;51.020;7.772;2022-11-03T05:05:20;10.10;99.90
19665;DHT22;9980;51.020;7.772;2022-11-03T05:07:55;10.00;99.90
19665;DHT22;9980;51.020;7.772;2022-11-03T05:10:49;10.00;99.90
19665;DHT22;9980;51.020;7.772;2022-11-03T05:13:26;10.00;99.90
19665;DHT22;9980;51.020;7.772;2022-11-03T05:16:20;10.00;99.90
19665;DHT22;9980;51.020;7.772;2022-11-03T05:18:53;9.90;99.90
19665;DHT22;9980;51.020;7.772;2022-11-03T05:21:49;9.90;99.90
19665;DHT22;9980;51.020;7.772;2022-11-03T05:24:31;9.80;99.90
19665;DHT22;9980;51.020;7.772;2022-11-03T05:27:27;9.90;99.90
19665;DHT22;9980;51.020;7.772;2022-11-03T05:30:12;9.80;99.90
19665;DHT22;9980;51.020;7.772;2022-11-03T05:32:59;9.80;99.90
19665;DHT22;9980;51.020;7.772;2022-11-03T05:35:38;9.70;99.90
19665;DHT22;9980;51.020;7.772;2022-11-03T05:38:26;9.70;99.90
19665;DHT22;9980;51.020;7.772;2022-11-03T05:41:21;9.70;99.90
19665;DHT22;9980;51.020;7.772;2022-11-03T05:44:30;9.60;99.90
19665;DHT22;9980;51.020;7.772;2022-11-03T05:47:20;9.60;99.90
19665;DHT22;9980;51.020;7.772;2022-11-03T05:50:22;9.50;99.90
19665;DHT22;9980;51.020;7.772;2022-11-03T05:56:21;9.40;99.90
19665;DHT22;9980;51.020;7.772;2022-11-03T05:58:56;9.40;99.90
19665;DHT22;9980;51.020;7.772;2022-11-03T06:01:48;9.30;99.90
19665;DHT22;9980;51.020;7.772;2022-11-03T06:04:31;9.30;99.90
19665;DHT22;9980;51.020;7.772;2022-11-03T06:07:25;9.30;99.90
19665;DHT22;9980;51.020;7.772;2022-11-03T06:10:30;9.20;99.90
19665;DHT22;9980;51.020;7.772;2022-11-03T06:13:29;9.20;99.90
19665;DHT22;9980;51.020;7.772;2022-11-03T06:16:32;9.10;99.90
19665;DHT22;9980;51.020;7.772;2022-11-03T06:19:34;9.10;99.90
19665;DHT22;9980;51.020;7.772;2022-11-03T06:22:33;9.00;99.90
19665;DHT22;9980;51.020;7.772;2022-11-03T06:25:32;9.00;99.90
19665;DHT22;9980;51.020;7.772;2022-11-03T06:28:13;8.90;99.90
19665;DHT22;9980;51.020;7.772;2022-11-03T06:31:25;8.90;99.90
19665;DHT22;9980;51.020;7.772;2022-11-03T06:34:00;8.90;99.90
19665;DHT22;9980;51.020;7.772;2022-11-03T06:36:56;8.90;99.90
19665;DHT22;9980;51.020;7.772;2022-11-03T06:39:40;8.80;99.90
19665;DHT22;9980;51.020;7.772;2022-11-03T06:42:30;8.80;99.90
19665;DHT22;9980;51.020;7.772;2022-11-03T06:45:24;8.80;99.90
19665;DHT22;9980;51.020;7.772;2022-11-03T06:48:11;8.80;99.90
19665;DHT22;9980;51.020;7.772;2022-11-03T06:50:57;8.80;99.90
19665;DHT22;9980;51.020;7.772;2022-11-03T06:53:52;8.80;99.90
19665;DHT22;9980;51.020;7.772;2022-11-03T06:56:35;8.80;99.90
19665;DHT22;9980;51.020;7.772;2022-11-03T06:59:28;8.80;99.90
19665;DHT22;9980;51.020;7.772;2022-11-03T07:02:01;8.80;99.90
19665;DHT22;9980;51.020;7.772;2022-11-03T07:04:54;8.80;99.90
19665;DHT22;9980;51.020;7.772;2022-11-03T07:07:27;8.80;99.90
19665;DHT22;9980;51.020;7.772;2022-11-03T07:10:24;8.80;99.90
19665;DHT22;9980;51.020;7.772;2022-11-03T07:13:00;8.90;99.90
19665;DHT22;9980;51.020;7.772;2022-11-03T07:16:02;8.90;99.90
19665;DHT22;9980;51.020;7.772;2022-11-03T07:18:39;8.90;99.90
19665;DHT22;9980;51.020;7.772;2022-11-03T07:21:40;8.90;99.90
19665;DHT22;9980;51.020;7.772;2022-11-03T07:24:26;9.00;99.90
19665;DHT22;9980;51.020;7.772;2022-11-03T07:30:26;9.10;99.90
19665;DHT22;9980;51.020;7.772;2022-11-03T07:33:22;9.10;99.90
19665;DHT22;9980;51.020;7.772;2022-11-03T07:36:05;9.20;99.90
19665;DHT22;9980;51.020;7.772;2022-11-03T07:38:58;9.30;99.90
19665;DHT22;9980;51.020;7.772;2022-11-03T07:41:40;9.30;99.90
19665;DHT22;9980;51.020;7.772;2022-11-03T07:44:34;9.40;99.90
19665;DHT22;9980;51.020;7.772;2022-11-03T07:47:13;9.50;99.90
19665;DHT22;9980;51.020;7.772;2022-11-03T07:50:14;9.50;99.90
19665;DHT22;9980;51.020;7.772;2022-11-03T07:52:46;9.60;99.90
19665;DHT22;9980;51.020;7.772;2022-11-03T07:55:39;9.60;99.90
19665;DHT22;9980;51.020;7.772;2022-11-03T08:01:30;9.80;99.90
19665;DHT22;9980;51.020;7.772;2022-11-03T08:04:22;9.80;99.90
19665;DHT22;9980;51.020;7.772;2022-11-03T08:07:17;9.90;99.90
19665;DHT22;9980;51.020;7.772;2022-11-03T08:09:57;9.90;99.90
19665;DHT22;9980;51.020;7.772;2022-11-03T08:12:45;10.00;99.90
19665;DHT22;9980;51.020;7.772;2022-11-03T08:15:24;10.10;99.90
19665;DHT22;9980;51.020;7.772;2022-11-03T08:18:10;10.20;99.90
19665;DHT22;9980;51.020;7.772;2022-11-03T08:20:50;10.30;99.90
19665;DHT22;9980;51.020;7.772;2022-11-03T08:23:35;10.40;99.90
19665;DHT22;9980;51.020;7.772;2022-11-03T08:26:20;10.60;99.90
19665;DHT22;9980;51.020;7.772;2022-11-03T08:29:13;10.70;99.90
19665;DHT22;9980;51.020;7.772;2022-11-03T08:31:48;10.80;99.90
19665;DHT22;9980;51.020;7.772;2022-11-03T08:34:41;11.00;99.90
19665;DHT22;9980;51.020;7.772;2022-11-03T08:37:14;11.20;99.90
19665;DHT22;9980;51.020;7.772;2022-11-03T08:40:08;11.30;99.90
19665;DHT22;9980;51.020;7.772;2022-11-03T08:42:48;11.50;99.90
19665;DHT22;9980;51.020;7.772;2022-11-03T08:45:40;11.60;99.90
19665;DHT22;9980;51.020;7.772;2022-11-03T08:48:24;11.80;99.90
19665;DHT22;9980;51.020;7.772;2022-11-03T08:51:18;12.00;99.90
19665;DHT22;9980;51.020;7.772;2022-11-03T08:53:52;12.10;99.90
19665;DHT22;9980;51.020;7.772;2022-11-03T08:56:44;12.30;99.90
19665;DHT22;9980;51.020;7.772;2022-11-03T08:59:25;12.50;99.90
19665;DHT22;9980;51.020;7.772;2022-11-03T09:02:10;12.60;99.90
19665;DHT22;9980;51.020;7.772;2022-11-03T09:04:49;12.80;99.90
19665;DHT22;9980;51.020;7.772;2022-11-03T09:07:35;13.00;99.90
19665;DHT22;9980;51.020;7.772;2022-11-03T09:10:35;13.10;99.90
19665;DHT22;9980;51.020;7.772;2022-11-03T09:13:21;13.30;99.90
19665;DHT22;9980;51.020;7.772;2022-11-03T09:16:00;13.40;99.90
19665;DHT22;9980;51.020;7.772;2022-11-03T09:18:46;13.50;99.90
19665;DHT22;9980;51.020;7.772;2022-11-03T09:21:25;13.70;99.90
19665;DHT22;9980;51.020;7.772;2022-11-03T09:24:18;13.80;99.90
19665;DHT22;9980;51.020;7.772;2022-11-03T09:26:51;14.00;99.90
19665;DHT22;9980;51.020;7.772;2022-11-03T09:29:44;14.10;99.90
19665;DHT22;9980;51.020;7.772;2022-11-03T09:32:44;14.20;99.90
19665;DHT22;9980;51.020;7.772;2022-11-03T09:35:37;14.30;99.90
19665;DHT22;9980;51.020;7.772;2022-11-03T09:38:09;14.40;99.90
19665;DHT22;9980;51.020;7.772;2022-11-03T09:41:03;14.60;99.90
19665;DHT22;9980;51.020;7.772;2022-11-03T09:43:57;14.70;99.90
19665;DHT22;9980;51.020;7.772;2022-11-03T09:46:51;14.80;99.90
19665;DHT22;9980;51.020;7.772;2022-11-03T09:49:32;14.90;99.90
19665;DHT22;9980;51.020;7.772;2022-11-03T09:52:26;15.00;99.90
19665;DHT22;9980;51.020;7.772;2022-11-03T09:55:14;15.10;99.90
19665;DHT22;9980;51.020;7.772;2022-11-03T09:58:13;15.20;99.90
19665;DHT22;9980;51.020;7.772;2022-11-03T10:00:54;15.30;99.90
19665;DHT22;9980;51.020;7.772;2022-11-03T10:03:39;15.40;99.90
19665;DHT22;9980;51.020;7.772;2022-11-03T10:06:18;15.60;99.90
19665;DHT22;9980;51.020;7.772;2022-11-03T10:09:06;15.60;99.80
19665;DHT22;9980;51.020;7.772;2022-11-03T10:11:55;15.70;99.60
19665;DHT22;9980;51.020;7.772;2022-11-03T10:14:49;15.80;99.50
19665;DHT22;9980;51.020;7.772;2022-11-03T10:17:26;15.90;99.50
19665;DHT22;9980;51.020;7.772;2022-11-03T10:20:22;16.00;99.30
19665;DHT22;9980;51.020;7.772;2022-11-03T10:22:55;16.00;99.10
19665;DHT22;9980;51.020;7.772;2022-11-03T10:25:48;16.10;98.90
19665;DHT22;9980;51.020;7.772;2022-11-03T10:28:23;16.20;98.50
19665;DHT22;9980;51.020;7.772;2022-11-03T10:31:19;16.30;98.40
19665;DHT22;9980;51.020;7.772;2022-11-03T10:33:54;16.40;98.00
19665;DHT22;9980;51.020;7.772;2022-11-03T10:36:48;16.50;98.00
19665;DHT22;9980;51.020;7.772;2022-11-03T10:39:29;16.60;97.90
19665;DHT22;9980;51.020;7.772;2022-11-03T10:42:27;16.60;97.70
19665;DHT22;9980;51.020;7.772;2022-11-03T10:45:17;16.70;97.30
19665;DHT22;9980;51.020;7.772;2022-11-03T10:48:05;16.80;97.50
19665;DHT22;9980;51.020;7.772;2022-11-03T10:50:45;16.80;97.00
19665;DHT22;9980;51.020;7.772;2022-11-03T10:53:31;16.90;97.40
19665;DHT22;9980;51.020;7.772;2022-11-03T10:56:11;16.90;96.80
19665;DHT22;9980;51.020;7.772;2022-11-03T10:58:58;16.90;96.80
19665;DHT22;9980;51.020;7.772;2022-11-03T11:01:38;17.00;96.60
19665;DHT22;9980;51.020;7.772;2022-11-03T11:04:31;17.00;96.90
19665;DHT22;9980;51.020;7.772;2022-11-03T11:07:17;17.00;96.50
19665;DHT22;9980;51.020;7.772;2022-11-03T11:10:25;17.00;96.40
19665;DHT22;9980;51.020;7.772;2022-11-03T11:19:27;17.10;96.20
19665;DHT22;9980;51.020;7.772;2022-11-03T11:22:21;17.10;96.30
19665;DHT22;9980;51.020;7.772;2022-11-03T11:25:02;17.10;96.30
19665;DHT22;9980;51.020;7.772;2022-11-03T11:27:53;17.10;96.10
19665;DHT22;9980;51.020;7.772;2022-11-03T11:33:29;17.10;96.00
19665;DHT22;9980;51.020;7.772;2022-11-03T11:36:20;17.10;95.50
19665;DHT22;9980;51.020;7.772;2022-11-03T11:42:17;17.20;95.30
19665;DHT22;9980;51.020;7.772;2022-11-03T11:51:48;17.20;95.20
19665;DHT22;9980;51.020;7.772;2022-11-03T11:54:29;17.20;95.00
19665;DHT22;9980;51.020;7.772;2022-11-03T11:57:19;17.20;95.10
19665;DHT22;9980;51.020;7.772;2022-11-03T12:00:00;17.20;94.90
19665;DHT22;9980;51.020;7.772;2022-11-03T12:02:46;17.20;94.90
19665;DHT22;9980;51.020;7.772;2022-11-03T12:05:29;17.20;94.70
19665;DHT22;9980;51.020;7.772;2022-11-03T12:08:19;17.20;94.70
19665;DHT22;9980;51.020;7.772;2022-11-03T12:11:04;17.20;94.60
19665;DHT22;9980;51.020;7.772;2022-11-03T12:13:51;17.20;95.00
19665;DHT22;9980;51.020;7.772;2022-11-03T12:16:34;17.20;94.60
19665;DHT22;9980;51.020;7.772;2022-11-03T12:19:48;17.20;94.90
19665;DHT22;9980;51.020;7.772;2022-11-03T12:25:35;17.20;94.50
19665;DHT22;9980;51.020;7.772;2022-11-03T12:28:08;17.20;94.30
19665;DHT22;9980;51.020;7.772;2022-11-03T12:31:01;17.20;94.40
19665;DHT22;9980;51.020;7.772;2022-11-03T12:33:35;17.20;94.20
19665;DHT22;9980;51.020;7.772;2022-11-03T12:36:27;17.10;94.10
19665;DHT22;9980;51.020;7.772;2022-11-03T12:39:07;17.10;94.40
19665;DHT22;9980;51.020;7.772;2022-11-03T12:41:54;17.00;94.20
19665;DHT22;9980;51.020;7.772;2022-11-03T12:44:33;17.00;94.10
19665;DHT22;9980;51.020;7.772;2022-11-03T12:47:26;17.00;94.20
19665;DHT22;9980;51.020;7.772;2022-11-03T12:50:06;16.90;93.90
19665;DHT22;9980;51.020;7.772;2022-11-03T12:52:55;16.90;94.10
19665;DHT22;9980;51.020;7.772;2022-11-03T12:55:35;16.80;94.30
19665;DHT22;9980;51.020;7.772;2022-11-03T12:58:23;16.80;94.20
19665;DHT22;9980;51.020;7.772;2022-11-03T13:01:04;16.80;94.40
19665;DHT22;9980;51.020;7.772;2022-11-03T13:03:50;16.80;94.20
19665;DHT22;9980;51.020;7.772;2022-11-03T13:06:31;16.80;94.30
19665;DHT22;9980;51.020;7.772;2022-11-03T13:09:18;16.70;94.40
19665;DHT22;9980;51.020;7.772;2022-11-03T13:11:57;16.70;94.20
19665;DHT22;9980;51.020;7.772;2022-11-03T13:15:08;16.70;94.60
19665;DHT22;9980;51.020;7.772;2022-11-03T13:17:42;16.70;94.40
19665;DHT22;9980;51.020;7.772;2022-11-03T13:20:52;16.70;94.50
19665;DHT22;9980;51.020;7.772;2022-11-03T13:23:26;16.60;94.50
19665;DHT22;9980;51.020;7.772;2022-11-03T13:26:25;16.70;94.50
19665;DHT22;9980;51.020;7.772;2022-11-03T13:29:19;16.70;94.40
19665;DHT22;9980;51.020;7.772;2022-11-03T13:32:01;16.60;94.50
19665;DHT22;9980;51.020;7.772;2022-11-03T13:34:54;16.60;94.50
19665;DHT22;9980;51.020;7.772;2022-11-03T13:37:28;16.60;94.40
19665;DHT22;9980;51.020;7.772;2022-11-03T13:40:20;16.60;94.40
19665;DHT22;9980;51.020;7.772;2022-11-03T13:43:14;16.60;94.40
19665;DHT22;9980;51.020;7.772;2022-11-03T13:46:07;16.60;94.50
19665;DHT22;9980;51.020;7.772;2022-11-03T13:48:40;16.60;94.40
19665;DHT22;9980;51.020;7.772;2022-11-03T13:51:53;16.50;94.30
19665;DHT22;9980;51.020;7.772;2022-11-03T13:54:32;16.50;94.60
19665;DHT22;9980;51.020;7.772;2022-11-03T13:57:38;16.50;94.50
19665;DHT22;9980;51.020;7.772;2022-11-03T14:00:37;16.50;94.70
19665;DHT22;9980;51.020;7.772;2022-11-03T14:03:24;16.50;94.60
19665;DHT22;9980;51.020;7.772;2022-11-03T14:06:23;16.50;94.60
19665;DHT22;9980;51.020;7.772;2022-11-03T14:09:09;16.50;94.80
19665;DHT22;9980;51.020;7.772;2022-11-03T14:11:48;16.50;95.10
19665;DHT22;9980;51.020;7.772;2022-11-03T14:15:07;16.40;94.90
19665;DHT22;9980;51.020;7.772;2022-11-03T14:17:42;16.40;94.80
19665;DHT22;9980;51.020;7.772;2022-11-03T14:20:34;16.40;95.00
19665;DHT22;9980;51.020;7.772;2022-11-03T14:23:08;16.40;94.90
19665;DHT22;9980;51.020;7.772;2022-11-03T14:26:01;16.30;95.00
19665;DHT22;9980;51.020;7.772;2022-11-03T14:28:54;16.30;95.00
19665;DHT22;9980;51.020;7.772;2022-11-03T14:31:33;16.30;95.00
19665;DHT22;9980;51.020;7.772;2022-11-03T14:34:27;16.20;95.10
19665;DHT22;9980;51.020;7.772;2022-11-03T14:37:01;16.20;95.10
19665;DHT22;9980;51.020;7.772;2022-11-03T14:39:55;16.20;95.20
19665;DHT22;9980;51.020;7.772;2022-11-03T14:42:28;16.10;95.20
19665;DHT22;9980;51.020;7.772;2022-11-03T14:45:21;16.10;95.30
19665;DHT22;9980;51.020;7.772;2022-11-03T14:47:54;16.10;95.30
19665;DHT22;9980;51.020;7.772;2022-11-03T14:50:47;16.00;95.30
19665;DHT22;9980;51.020;7.772;2022-11-03T14:53:21;15.90;95.20
19665;DHT22;9980;51.020;7.772;2022-11-03T14:56:14;15.90;95.30
19665;DHT22;9980;51.020;7.772;2022-11-03T14:58:47;15.90;95.50
19665;DHT22;9980;51.020;7.772;2022-11-03T15:01:40;15.80;95.40
19665;DHT22;9980;51.020;7.772;2022-11-03T15:04:19;15.80;95.40
19665;DHT22;9980;51.020;7.772;2022-11-03T15:07:07;15.80;95.50
19665;DHT22;9980;51.020;7.772;2022-11-03T15:09:46;15.70;95.50
19665;DHT22;9980;51.020;7.772;2022-11-03T15:12:32;15.70;95.50
19665;DHT22;9980;51.020;7.772;2022-11-03T15:15:11;15.70;95.60
19665;DHT22;9980;51.020;7.772;2022-11-03T15:17:57;15.70;95.60
19665;DHT22;9980;51.020;7.772;2022-11-03T15:20:50;15.60;95.70
19665;DHT22;9980;51.020;7.772;2022-11-03T15:23:23;15.60;95.70
19665;DHT22;9980;51.020;7.772;2022-11-03T15:26:36;15.50;95.70
19665;DHT22;9980;51.020;7.772;2022-11-03T15:29:09;15.50;95.70
19665;DHT22;9980;51.020;7.772;2022-11-03T15:32:02;15.50;95.80
19665;DHT22;9980;51.020;7.772;2022-11-03T15:34:41;15.40;95.90
19665;DHT22;9980;51.020;7.772;2022-11-03T15:37:27;15.40;95.90
19665;DHT22;9980;51.020;7.772;2022-11-03T15:40:07;15.40;96.00
19665;DHT22;9980;51.020;7.772;2022-11-03T15:42:55;15.30;95.90
19665;DHT22;9980;51.020;7.772;2022-11-03T15:45:35;15.30;96.10
19665;DHT22;9980;51.020;7.772;2022-11-03T15:48:21;15.20;96.10
19665;DHT22;9980;51.020;7.772;2022-11-03T15:51:06;15.30;96.30
19665;DHT22;9980;51.020;7.772;2022-11-03T15:53:52;15.20;96.30
19665;DHT22;9980;51.020;7.772;2022-11-03T15:56:32;15.20;96.20
19665;DHT22;9980;51.020;7.772;2022-11-03T15:59:25;15.20;96.40
19665;DHT22;9980;51.020;7.772;2022-11-03T16:01:58;15.10;96.50
19665;DHT22;9980;51.020;7.772;2022-11-03T16:05:14;15.10;96.50
19665;DHT22;9980;51.020;7.772;2022-11-03T16:08:03;15.10;96.50
19665;DHT22;9980;51.020;7.772;2022-11-03T16:10:56;15.00;96.60
19665;DHT22;9980;51.020;7.772;2022-11-03T16:13:30;15.00;96.70
19665;DHT22;9980;51.020;7.772;2022-11-03T16:16:23;15.00;96.80
19665;DHT22;9980;51.020;7.772;2022-11-03T16:18:56;14.90;96.90
19665;DHT22;9980;51.020;7.772;2022-11-03T16:21:49;14.90;97.00
19665;DHT22;9980;51.020;7.772;2022-11-03T16:24:30;14.90;97.30
19665;DHT22;9980;51.020;7.772;2022-11-03T16:27:16;14.90;97.40
19665;DHT22;9980;51.020;7.772;2022-11-03T16:29:55;14.80;97.50
19665;DHT22;9980;51.020;7.772;2022-11-03T16:32:48;14.80;97.60
19665;DHT22;9980;51.020;7.772;2022-11-03T16:35:31;14.80;97.80
19665;DHT22;9980;51.020;7.772;2022-11-03T16:38:17;14.70;97.90
19665;DHT22;9980;51.020;7.772;2022-11-03T16:40:57;14.70;98.10
19665;DHT22;9980;51.020;7.772;2022-11-03T16:43:43;14.70;98.00
19665;DHT22;9980;51.020;7.772;2022-11-03T16:46:22;14.60;98.40
19665;DHT22;9980;51.020;7.772;2022-11-03T16:49:08;14.60;98.30
19665;DHT22;9980;51.020;7.772;2022-11-03T16:51:47;14.50;98.50
19665;DHT22;9980;51.020;7.772;2022-11-03T16:54:40;14.50;98.40
19665;DHT22;9980;51.020;7.772;2022-11-03T16:57:13;14.50;98.70
19665;DHT22;9980;51.020;7.772;2022-11-03T17:00:14;14.50;98.70
19665;DHT22;9980;51.020;7.772;2022-11-03T17:02:55;14.40;98.90
19665;DHT22;9980;51.020;7.772;2022-11-03T17:05:48;14.40;98.80
19665;DHT22;9980;51.020;7.772;2022-11-03T17:08:21;14.40;99.10
19665;DHT22;9980;51.020;7.772;2022-11-03T17:11:34;14.40;99.00
19665;DHT22;9980;51.020;7.772;2022-11-03T17:14:08;14.30;99.20
19665;DHT22;9980;51.020;7.772;2022-11-03T17:17:02;14.30;99.20
19665;DHT22;9980;51.020;7.772;2022-11-03T17:19:41;14.30;99.40
19665;DHT22;9980;51.020;7.772;2022-11-03T17:22:34;14.30;99.40
19665;DHT22;9980;51.020;7.772;2022-11-03T17:25:13;14.30;99.60
19665;DHT22;9980;51.020;7.772;2022-11-03T17:28:01;14.30;99.50
19665;DHT22;9980;51.020;7.772;2022-11-03T17:30:42;14.30;99.80
19665;DHT22;9980;51.020;7.772;2022-11-03T17:33:29;14.20;99.70
19665;DHT22;9980;51.020;7.772;2022-11-03T17:36:09;14.20;99.90
19665;DHT22;9980;51.020;7.772;2022-11-03T17:38:55;14.20;99.80
19665;DHT22;9980;51.020;7.772;2022-11-03T17:41:35;14.20;99.90
19665;DHT22;9980;51.020;7.772;2022-11-03T17:44:28;14.20;99.90
19665;DHT22;9980;51.020;7.772;2022-11-03T17:47:01;14.10;99.90
19665;DHT22;9980;51.020;7.772;2022-11-03T17:49:54;14.10;99.90
19665;DHT22;9980;51.020;7.772;2022-11-03T17:52:28;14.10;99.90
19665;DHT22;9980;51.020;7.772;2022-11-03T17:55:26;14.10;99.90
19665;DHT22;9980;51.020;7.772;2022-11-03T17:58:02;14.10;99.90
19665;DHT22;9980;51.020;7.772;2022-11-03T18:00:55;14.10;99.90
19665;DHT22;9980;51.020;7.772;2022-11-03T18:03:29;14.10;99.90
19665;DHT22;9980;51.020;7.772;2022-11-03T18:06:22;14.10;99.90
19665;DHT22;9980;51.020;7.772;2022-11-03T18:08:55;14.10;99.90
19665;DHT22;9980;51.020;7.772;2022-11-03T18:11:48;14.10;99.90
19665;DHT22;9980;51.020;7.772;2022-11-03T18:14:45;14.00;99.90
19665;DHT22;9980;51.020;7.772;2022-11-03T18:17:31;14.00;99.90
19665;DHT22;9980;51.020;7.772;2022-11-03T18:20:20;14.00;99.90
19665;DHT22;9980;51.020;7.772;2022-11-03T18:23:17;14.00;99.90
19665;DHT22;9980;51.020;7.772;2022-11-03T18:26:00;14.00;99.90
19665;DHT22;9980;51.020;7.772;2022-11-03T18:28:47;14.00;99.90
19665;DHT22;9980;51.020;7.772;2022-11-03T18:31:41;14.00;99.90
19665;DHT22;9980;51.020;7.772;2022-11-03T18:34:30;14.00;99.90
19665;DHT22;9980;51.020;7.772;2022-11-03T18:37:11;14.00;99.90
19665;DHT22;9980;51.020;7.772;2022-11-03T18:40:04;14.00;99.90
19665;DHT22;9980;51.020;7.772;2022-11-03T18:42:37;13.90;99.90